Economy, Missouri
Current Conditions -  °F | °C
As of 3:55 PM on Thursday 23 Oct 2014 (Local Time) from KIRK Reporting Station
Overcast Overcast  
Wind Chill: 66°   Ceiling: 2400
Heat Index: 66°   Visibility: 10mi
Dew Point: 57°   Wind: 9mph
Humidity: 73%   Direction: 230°SW
Pressure: 30.05"   Gusts: NA
Location:  39.9265°N, 92.4529°W
Report Text: KIRK 232055Z AUTO 23008KT 10SM BKN024 OVC028 19/14 A3005 RMK AO2 SLP178 T01890139 56018
Loading
Personal Weather Stations






























Interactive Weather Map
Tropical Storm Tracking
New forecast layout! Learn more

10-Day Weather Forecast

Advertisements
Track Severe Weather on mobile